createdAt,value
2023-01-13T00:03:35.729Z,12.30
2023-01-13T00:06:02.735Z,12.90
2023-01-13T00:08:29.587Z,15.70
2023-01-13T00:10:56.336Z,15.20
2023-01-13T00:13:26.758Z,16.30
2023-01-13T00:16:00.802Z,13.40
2023-01-13T00:18:28.097Z,14.40
2023-01-13T00:23:35.830Z,13.90
2023-01-13T00:26:04.849Z,14.70
2023-01-13T00:28:31.861Z,15.10
2023-01-13T00:31:08.928Z,17.10
2023-01-13T00:33:36.174Z,15.10
2023-01-13T00:38:30.922Z,14.30
2023-01-13T00:41:02.303Z,14.40
2023-01-13T00:43:29.985Z,12.80
2023-01-13T00:45:56.844Z,13.80
2023-01-13T00:48:23.997Z,12.70
2023-01-13T00:51:03.138Z,13.60
2023-01-13T00:53:32.967Z,14.20
2023-01-13T00:56:06.648Z,12.90
2023-01-13T00:58:34.400Z,14.00
2023-01-13T01:01:02.518Z,12.20
2023-01-13T01:03:29.727Z,12.90
2023-01-13T01:08:24.071Z,15.50
2023-01-13T01:10:50.950Z,15.00
2023-01-13T01:13:17.893Z,14.20
2023-01-13T01:15:44.789Z,13.50
2023-01-13T01:18:11.680Z,13.40
2023-01-13T01:20:38.465Z,12.80
2023-01-13T01:23:05.541Z,12.80
2023-01-13T01:25:33.275Z,12.30
2023-01-13T01:28:00.267Z,12.40
2023-01-13T01:30:27.171Z,12.50
2023-01-13T01:32:54.014Z,12.90
2023-01-13T01:35:21.182Z,13.10
2023-01-13T01:40:14.802Z,12.40
2023-01-13T01:43:00.395Z,11.40
2023-01-13T01:45:27.890Z,13.10
2023-01-13T01:48:00.194Z,15.80
2023-01-13T01:50:27.675Z,15.40
2023-01-13T01:53:01.188Z,14.40
2023-01-13T01:55:30.053Z,15.90
2023-01-13T01:58:03.163Z,15.00
2023-01-13T02:00:31.991Z,14.80
2023-01-13T02:02:58.926Z,15.80
2023-01-13T02:05:25.743Z,16.20
2023-01-13T02:07:53.655Z,15.10
2023-01-13T02:10:22.163Z,17.30
2023-01-13T02:12:49.047Z,15.10
2023-01-13T02:15:21.741Z,16.20
2023-01-13T02:17:59.441Z,14.60
2023-01-13T02:20:45.060Z,16.20
2023-01-13T02:23:52.857Z,16.20
2023-01-13T02:26:52.213Z,15.90
2023-01-13T02:30:02.405Z,16.30
2023-01-13T02:33:07.015Z,14.80
2023-01-13T02:35:55.457Z,15.50
2023-01-13T02:41:31.050Z,14.90
2023-01-13T02:44:08.045Z,14.40
2023-01-13T02:46:36.544Z,14.20
2023-01-13T02:49:05.962Z,14.30
2023-01-13T02:51:32.769Z,14.20
2023-01-13T02:54:05.829Z,13.80
2023-01-13T02:56:35.470Z,14.30
2023-01-13T02:59:02.317Z,12.30
2023-01-13T03:01:29.378Z,13.70
2023-01-13T03:03:56.208Z,13.90
2023-01-13T03:06:45.776Z,14.20
2023-01-13T03:09:29.480Z,13.80
2023-01-13T03:12:01.321Z,13.10
2023-01-13T03:15:00.603Z,13.50
2023-01-13T03:17:37.805Z,12.80
2023-01-13T03:20:07.371Z,13.10
2023-01-13T03:22:41.179Z,14.70
2023-01-13T03:25:17.240Z,14.10
2023-01-13T03:27:49.117Z,13.90
2023-01-13T03:30:49.089Z,15.00
2023-01-13T03:33:17.828Z,15.70
2023-01-13T03:35:50.639Z,17.80
2023-01-13T03:38:18.677Z,16.50
2023-01-13T03:40:57.135Z,18.40
2023-01-13T03:44:04.124Z,18.40
2023-01-13T03:46:45.067Z,18.70
2023-01-13T03:49:13.401Z,16.70
2023-01-13T03:51:40.162Z,18.80
2023-01-13T03:54:09.183Z,18.40
2023-01-13T03:56:41.702Z,17.30
2023-01-13T03:59:11.727Z,18.90
2023-01-13T04:02:01.331Z,17.70
2023-01-13T04:04:45.475Z,17.90
2023-01-13T04:07:24.790Z,17.90
2023-01-13T04:09:54.652Z,18.40
2023-01-13T04:12:48.278Z,17.50
2023-01-13T04:15:19.554Z,18.10
2023-01-13T04:17:46.345Z,18.30
2023-01-13T04:20:13.045Z,17.90
2023-01-13T04:22:39.735Z,17.80
2023-01-13T04:25:07.305Z,19.90
2023-01-13T04:27:34.094Z,19.00
2023-01-13T04:30:00.850Z,19.70
2023-01-13T04:32:27.539Z,18.00
2023-01-13T04:34:54.350Z,18.60
2023-01-13T04:37:21.435Z,18.90
2023-01-13T04:39:48.374Z,18.80
2023-01-13T04:42:15.161Z,19.50
2023-01-13T04:44:41.848Z,18.50
2023-01-13T04:47:08.584Z,19.40
2023-01-13T04:49:35.278Z,19.60
2023-01-13T04:52:03.878Z,20.10
2023-01-13T04:54:30.682Z,19.80
2023-01-13T04:56:57.528Z,20.30
2023-01-13T04:59:24.248Z,19.20
2023-01-13T05:01:51.299Z,20.00
2023-01-13T05:04:18.228Z,20.70
2023-01-13T05:06:45.398Z,18.50
2023-01-13T05:09:13.405Z,18.50
2023-01-13T05:11:59.324Z,19.00
2023-01-13T05:14:45.206Z,18.30
2023-01-13T05:17:22.779Z,18.80
2023-01-13T05:19:49.562Z,19.20
2023-01-13T05:22:35.008Z,18.90
2023-01-13T05:25:20.542Z,18.60
2023-01-13T05:27:54.725Z,18.40
2023-01-13T05:30:22.498Z,18.40
2023-01-13T05:32:49.281Z,18.80
2023-01-13T05:35:16.232Z,19.30
2023-01-13T05:37:43.936Z,18.90
2023-01-13T05:40:30.631Z,19.50
2023-01-13T05:43:26.603Z,19.20
2023-01-13T05:45:53.468Z,19.60
2023-01-13T05:48:21.322Z,18.20
2023-01-13T05:50:49.415Z,18.50
2023-01-13T05:53:17.413Z,19.90
2023-01-13T05:55:44.720Z,18.90
2023-01-13T06:00:40.971Z,18.70
2023-01-13T06:03:08.759Z,20.10
2023-01-13T06:05:35.888Z,18.20
2023-01-13T06:08:03.381Z,19.10
2023-01-13T06:10:30.265Z,18.70
2023-01-13T06:12:57.304Z,21.20
2023-01-13T06:15:24.403Z,19.60
2023-01-13T06:17:51.286Z,18.10
2023-01-13T06:20:18.411Z,19.40
2023-01-13T06:22:49.749Z,19.70
2023-01-13T06:25:43.607Z,18.40
2023-01-13T06:28:10.673Z,19.90
2023-01-13T06:30:48.655Z,20.30
2023-01-13T06:33:17.464Z,19.50
2023-01-13T06:35:50.360Z,19.70
2023-01-13T06:38:17.262Z,19.70
2023-01-13T06:40:44.083Z,18.20
2023-01-13T06:43:17.436Z,18.80
2023-01-13T06:45:54.772Z,20.40
2023-01-13T06:48:27.567Z,19.90
2023-01-13T06:50:54.356Z,20.20
2023-01-13T06:53:21.125Z,19.60
2023-01-13T06:55:48.036Z,19.40
2023-01-13T06:58:14.789Z,19.80
2023-01-13T07:00:41.679Z,21.10
2023-01-13T07:03:15.927Z,19.70
2023-01-13T07:05:43.913Z,19.40
2023-01-13T07:08:10.790Z,20.70
2023-01-13T07:10:38.047Z,20.60
2023-01-13T07:13:25.480Z,20.40
2023-01-13T07:15:57.262Z,21.00
2023-01-13T07:18:24.670Z,19.10
2023-01-13T07:20:55.648Z,19.40
2023-01-13T07:23:22.473Z,18.60
2023-01-13T07:25:49.240Z,18.90
2023-01-13T07:28:16.168Z,17.20
2023-01-13T07:30:42.884Z,17.90
2023-01-13T07:33:09.596Z,17.30
2023-01-13T07:35:36.341Z,19.30
2023-01-13T07:38:03.077Z,20.50
2023-01-13T07:40:30.221Z,20.80
2023-01-13T07:43:15.683Z,19.00
2023-01-13T07:45:42.569Z,18.60
2023-01-13T07:48:09.481Z,20.10
2023-01-13T07:50:36.263Z,21.20
2023-01-13T07:53:03.004Z,20.00
2023-01-13T07:55:29.747Z,19.60
2023-01-13T07:57:56.522Z,19.00
2023-01-13T08:00:23.852Z,20.10
2023-01-13T08:02:50.575Z,24.10
2023-01-13T08:05:18.056Z,22.60
2023-01-13T08:07:45.049Z,24.20
2023-01-13T08:10:12.042Z,25.40
2023-01-13T08:12:57.540Z,24.00
2023-01-13T08:15:24.608Z,25.00
2023-01-13T08:17:51.367Z,25.40
2023-01-13T08:20:18.511Z,24.00
2023-01-13T08:22:45.408Z,23.40
2023-01-13T08:25:12.123Z,23.00
2023-01-13T08:27:39.197Z,22.50
2023-01-13T08:30:06.697Z,24.50
2023-01-13T08:32:33.399Z,23.90
2023-01-13T08:35:00.166Z,23.10
2023-01-13T08:37:26.872Z,23.80
2023-01-13T08:39:53.596Z,22.00
2023-01-13T08:42:20.769Z,22.00
2023-01-13T08:44:47.761Z,22.90
2023-01-13T08:47:14.529Z,22.20
2023-01-13T08:49:41.260Z,25.00
2023-01-13T08:52:08.354Z,23.10
2023-01-13T08:54:35.112Z,23.20
2023-01-13T08:57:03.407Z,25.10
2023-01-13T08:59:30.373Z,27.90
2023-01-13T09:01:57.419Z,29.20
2023-01-13T09:04:25.753Z,28.10
2023-01-13T09:06:52.688Z,29.00
2023-01-13T09:09:19.965Z,29.00
2023-01-13T09:12:08.064Z,33.50
2023-01-13T09:14:35.990Z,30.20
2023-01-13T09:17:03.146Z,29.20
2023-01-13T09:19:30.173Z,26.10
2023-01-13T09:21:57.125Z,23.90
2023-01-13T09:24:24.121Z,22.30
2023-01-13T09:26:50.833Z,21.90
2023-01-13T09:29:17.854Z,21.60
2023-01-13T09:31:44.761Z,21.50
2023-01-13T09:34:34.019Z,21.10
2023-01-13T09:37:00.884Z,22.40
2023-01-13T09:39:27.848Z,22.70
2023-01-13T09:42:15.315Z,20.90
2023-01-13T09:44:55.945Z,19.20
2023-01-13T09:47:24.235Z,19.30
2023-01-13T09:49:51.330Z,20.20
2023-01-13T09:52:26.709Z,19.60
2023-01-13T09:55:11.665Z,18.90
2023-01-13T09:57:39.945Z,20.60
2023-01-13T10:00:14.245Z,19.90
2023-01-13T10:02:46.619Z,20.90
2023-01-13T10:05:37.611Z,20.40
2023-01-13T10:08:23.681Z,20.90
2023-01-13T10:10:53.785Z,21.40
2023-01-13T10:13:23.684Z,22.70
2023-01-13T10:16:08.540Z,22.40
2023-01-13T10:19:00.842Z,20.90
2023-01-13T10:21:40.445Z,19.00
2023-01-13T10:24:56.797Z,18.90
2023-01-13T10:27:36.960Z,17.90
2023-01-13T10:30:31.494Z,18.50
2023-01-13T10:33:14.085Z,17.90
2023-01-13T10:35:51.445Z,18.00
2023-01-13T10:38:39.196Z,16.90
2023-01-13T10:41:18.206Z,18.90
2023-01-13T10:43:50.957Z,19.20
2023-01-13T10:46:18.592Z,19.20
2023-01-13T10:48:58.041Z,18.60
2023-01-13T10:51:37.488Z,18.00
2023-01-13T10:54:13.537Z,16.90
2023-01-13T10:56:41.793Z,18.80
2023-01-13T10:59:24.852Z,17.00
2023-01-13T11:02:05.751Z,15.40
2023-01-13T11:07:34.563Z,15.40
2023-01-13T11:10:17.025Z,16.40
2023-01-13T11:13:06.954Z,17.10
2023-01-13T11:15:57.294Z,15.90
2023-01-13T11:18:30.956Z,17.00
2023-01-13T11:20:57.882Z,16.60
2023-01-13T11:23:30.583Z,14.60
2023-01-13T11:26:02.115Z,13.70
2023-01-13T11:28:39.805Z,15.00
2023-01-13T11:31:27.233Z,14.30
2023-01-13T11:33:57.093Z,14.60
2023-01-13T11:36:29.190Z,14.70
2023-01-13T11:38:57.215Z,14.50
2023-01-13T11:41:43.551Z,14.70
2023-01-13T11:44:20.720Z,15.20
2023-01-13T11:46:50.881Z,15.30
2023-01-13T11:49:26.463Z,14.90
2023-01-13T11:52:15.979Z,14.20
2023-01-13T11:54:49.129Z,14.70
2023-01-13T11:57:37.287Z,13.70
2023-01-13T12:00:23.082Z,14.00
2023-01-13T12:03:17.409Z,14.10
2023-01-13T12:06:04.349Z,14.90
2023-01-13T12:08:41.183Z,14.30
2023-01-13T12:11:22.664Z,14.20
2023-01-13T12:14:19.195Z,15.00
2023-01-13T12:16:49.058Z,15.70
2023-01-13T12:19:28.031Z,15.60
2023-01-13T12:22:10.204Z,15.10
2023-01-13T12:24:46.093Z,15.10
2023-01-13T12:27:35.637Z,14.50
2023-01-13T12:30:03.654Z,14.10
2023-01-13T12:32:35.522Z,15.20
2023-01-13T12:35:15.500Z,14.50
2023-01-13T12:37:52.475Z,15.50
2023-01-13T12:40:48.120Z,16.50
2023-01-13T12:43:40.846Z,15.10
2023-01-13T12:46:23.159Z,15.30
2023-01-13T12:48:55.425Z,15.40
2023-01-13T12:51:26.162Z,17.40
2023-01-13T12:53:53.260Z,15.80
2023-01-13T12:59:16.601Z,17.60
2023-01-13T13:01:44.278Z,16.90
2023-01-13T13:04:17.535Z,16.00
2023-01-13T13:07:05.640Z,18.50
2023-01-13T13:09:36.616Z,18.40
2023-01-13T13:13:00.422Z,18.40
2023-01-13T13:15:29.138Z,18.20
2023-01-13T13:17:59.172Z,18.60
2023-01-13T13:21:03.942Z,18.90
2023-01-13T13:23:45.847Z,17.00
2023-01-13T13:26:22.157Z,16.00
2023-01-13T13:29:20.436Z,17.00
2023-01-13T13:31:53.327Z,19.20
2023-01-13T13:34:29.189Z,18.50
2023-01-13T13:37:16.247Z,19.30
2023-01-13T13:40:01.840Z,18.10
2023-01-13T13:42:48.323Z,18.20
2023-01-13T13:45:40.260Z,17.90
2023-01-13T13:48:25.816Z,17.40
2023-01-13T13:50:59.095Z,18.40
2023-01-13T13:53:27.379Z,16.90
2023-01-13T13:55:58.174Z,23.00
2023-01-13T13:58:26.423Z,20.00
2023-01-13T14:00:53.276Z,22.00
2023-01-13T14:03:31.223Z,20.20
2023-01-13T14:05:59.593Z,18.80
2023-01-13T14:08:31.188Z,19.30
2023-01-13T14:10:57.887Z,18.50
2023-01-13T14:13:29.274Z,21.30
2023-01-13T14:15:58.431Z,26.00
2023-01-13T14:18:26.011Z,25.50
2023-01-13T14:21:17.356Z,21.80
2023-01-13T14:23:51.230Z,21.00
2023-01-13T14:26:17.940Z,19.40
2023-01-13T14:28:44.969Z,20.40
2023-01-13T14:31:11.818Z,19.00
2023-01-13T14:33:49.378Z,17.10
2023-01-13T14:36:37.697Z,19.40
2023-01-13T14:39:04.408Z,18.60
2023-01-13T14:41:43.583Z,18.90
2023-01-13T14:44:13.389Z,18.60
2023-01-13T14:46:41.232Z,19.70
2023-01-13T14:49:24.752Z,21.00
2023-01-13T14:51:52.100Z,20.20
2023-01-13T14:57:24.503Z,19.70
2023-01-13T15:00:01.629Z,20.90
2023-01-13T15:02:32.323Z,21.90
2023-01-13T15:05:24.286Z,21.10
2023-01-13T15:08:26.691Z,22.50
2023-01-13T15:11:01.376Z,24.20
2023-01-13T15:13:35.643Z,24.20
2023-01-13T15:16:08.373Z,26.40
2023-01-13T15:18:39.935Z,26.10
2023-01-13T15:21:08.424Z,24.70
2023-01-13T15:23:35.818Z,26.20
2023-01-13T15:26:02.976Z,24.70
2023-01-13T15:28:29.836Z,26.90
2023-01-13T15:31:00.759Z,24.00
2023-01-13T15:33:27.737Z,24.90
2023-01-13T15:35:54.800Z,25.20
2023-01-13T15:38:22.773Z,23.70
2023-01-13T15:40:50.237Z,23.70
2023-01-13T15:43:37.319Z,24.20
2023-01-13T15:46:24.940Z,27.20
2023-01-13T15:48:54.755Z,28.00
2023-01-13T15:51:21.886Z,28.70
2023-01-13T15:53:49.209Z,30.10
2023-01-13T15:58:46.875Z,24.60
2023-01-13T16:01:13.812Z,24.50
2023-01-13T16:03:40.625Z,24.70
2023-01-13T16:06:17.220Z,22.40
2023-01-13T16:08:43.980Z,22.10
2023-01-13T16:11:11.346Z,23.00
2023-01-13T16:16:18.627Z,20.20
2023-01-13T16:18:45.374Z,21.30
2023-01-13T16:21:12.560Z,19.40
2023-01-13T16:23:39.325Z,20.90
2023-01-13T16:26:27.720Z,20.00
2023-01-13T16:28:55.843Z,19.90
2023-01-13T16:31:32.012Z,19.10
2023-01-13T16:34:02.749Z,19.10
2023-01-13T16:36:30.989Z,20.50
2023-01-13T16:38:57.995Z,21.90
2023-01-13T16:41:25.235Z,20.50
2023-01-13T16:43:52.250Z,21.20
2023-01-13T16:46:24.092Z,21.00
2023-01-13T16:48:52.972Z,20.60
2023-01-13T16:51:20.738Z,19.10
2023-01-13T16:53:47.650Z,20.40
2023-01-13T16:56:20.873Z,20.30
2023-01-13T16:58:47.975Z,19.10
2023-01-13T17:01:23.548Z,19.60
2023-01-13T17:03:51.636Z,19.10
2023-01-13T17:06:40.062Z,18.50
2023-01-13T17:09:18.569Z,19.30
2023-01-13T17:11:45.412Z,19.40
2023-01-13T17:14:18.240Z,17.90
2023-01-13T17:16:47.398Z,18.90
2023-01-13T17:19:14.416Z,17.70
2023-01-13T17:21:41.507Z,19.40
2023-01-13T17:24:09.740Z,17.60
2023-01-13T17:26:49.088Z,18.60
2023-01-13T17:29:17.737Z,17.80
2023-01-13T17:31:44.707Z,18.70
2023-01-13T17:34:12.053Z,17.50
2023-01-13T17:36:39.218Z,18.70
2023-01-13T17:39:06.982Z,18.10
2023-01-13T17:41:33.899Z,18.60
2023-01-13T17:44:00.895Z,19.30
2023-01-13T17:46:27.787Z,20.10
2023-01-13T17:48:54.580Z,20.00
2023-01-13T17:51:22.937Z,20.90
2023-01-13T17:53:49.674Z,21.30
2023-01-13T17:56:17.204Z,19.60
2023-01-13T17:58:45.551Z,19.30
2023-01-13T18:01:21.937Z,19.60
2023-01-13T18:03:49.135Z,21.60
2023-01-13T18:06:18.206Z,20.20
2023-01-13T18:08:45.714Z,19.80
2023-01-13T18:11:12.995Z,19.80
2023-01-13T18:16:19.508Z,18.60
2023-01-13T18:18:47.771Z,18.80
2023-01-13T18:21:41.638Z,20.60
2023-01-13T18:24:35.239Z,20.90
2023-01-13T18:27:22.927Z,20.40
2023-01-13T18:29:51.718Z,20.00
2023-01-13T18:32:18.526Z,20.70
2023-01-13T18:34:45.589Z,19.60
2023-01-13T18:37:13.201Z,20.50
2023-01-13T18:39:40.154Z,19.10
2023-01-13T18:42:26.764Z,19.90
2023-01-13T18:44:54.341Z,18.80
2023-01-13T18:47:21.118Z,20.10
2023-01-13T18:49:47.831Z,17.50
2023-01-13T18:52:14.617Z,18.80
2023-01-13T18:54:41.489Z,19.60
2023-01-13T18:57:08.837Z,20.80
2023-01-13T19:02:03.074Z,19.70
2023-01-13T19:04:29.851Z,19.80
2023-01-13T19:07:00.956Z,21.50
2023-01-13T19:09:28.865Z,20.00
2023-01-13T19:11:56.299Z,20.40
2023-01-13T19:14:37.519Z,22.10
2023-01-13T19:17:13.020Z,19.80
2023-01-13T19:19:41.352Z,21.70
2023-01-13T19:22:10.019Z,22.30
2023-01-13T19:24:37.185Z,21.20
2023-01-13T19:29:32.640Z,21.20
2023-01-13T19:32:00.825Z,20.80
2023-01-13T19:34:28.001Z,21.50
2023-01-13T19:36:54.850Z,20.90
2023-01-13T19:39:21.887Z,22.90
2023-01-13T19:42:07.499Z,23.00
2023-01-13T19:44:53.096Z,22.40
2023-01-13T19:47:19.961Z,20.70
2023-01-13T19:49:46.843Z,22.50
2023-01-13T19:52:13.786Z,23.50
2023-01-13T19:54:40.676Z,23.40
2023-01-13T19:57:07.747Z,22.90
2023-01-13T19:59:35.650Z,22.70
2023-01-13T20:02:04.635Z,23.00
2023-01-13T20:04:38.327Z,23.90
2023-01-13T20:07:06.012Z,22.70
2023-01-13T20:09:33.550Z,22.20
2023-01-13T20:12:18.383Z,23.00
2023-01-13T20:14:47.531Z,22.20
2023-01-13T20:17:15.349Z,23.20
2023-01-13T20:19:42.629Z,22.80
2023-01-13T20:22:09.528Z,23.50
2023-01-13T20:24:36.317Z,24.20
2023-01-13T20:27:03.877Z,22.80
2023-01-13T20:29:31.848Z,22.70
2023-01-13T20:31:58.908Z,23.00
2023-01-13T20:34:25.880Z,22.80
2023-01-13T20:36:53.142Z,22.30
2023-01-13T20:42:06.728Z,20.60
2023-01-13T20:44:33.907Z,22.40
2023-01-13T20:47:00.723Z,21.50
2023-01-13T20:49:27.817Z,22.30
2023-01-13T20:51:54.886Z,22.30
2023-01-13T20:54:21.829Z,21.70
2023-01-13T20:56:48.874Z,21.50
2023-01-13T20:59:15.863Z,21.10
2023-01-13T21:01:42.881Z,20.40
2023-01-13T21:04:09.984Z,19.10
2023-01-13T21:06:36.970Z,21.20
2023-01-13T21:09:03.809Z,20.20
2023-01-13T21:11:49.197Z,19.80
2023-01-13T21:14:38.609Z,20.80
2023-01-13T21:17:05.745Z,22.00
2023-01-13T21:19:32.626Z,19.50
2023-01-13T21:21:59.558Z,19.40
2023-01-13T21:24:26.952Z,21.70
2023-01-13T21:26:59.013Z,20.70
2023-01-13T21:29:25.739Z,20.00
2023-01-13T21:31:54.466Z,19.70
2023-01-13T21:34:21.249Z,20.80
2023-01-13T21:36:48.031Z,21.00
2023-01-13T21:39:16.125Z,22.10
2023-01-13T21:42:01.728Z,21.00
2023-01-13T21:45:04.101Z,21.50
2023-01-13T21:47:49.242Z,21.40
2023-01-13T21:50:20.946Z,20.40
2023-01-13T21:52:48.448Z,21.30
2023-01-13T21:55:25.065Z,22.20
2023-01-13T21:58:14.854Z,21.10
2023-01-13T22:00:42.774Z,21.30
2023-01-13T22:03:10.659Z,22.30
2023-01-13T22:05:37.585Z,21.10
2023-01-13T22:08:04.583Z,22.50
2023-01-13T22:10:31.729Z,21.30
2023-01-13T22:13:20.589Z,20.50
2023-01-13T22:18:13.999Z,20.30
2023-01-13T22:20:42.127Z,21.00
2023-01-13T22:23:09.334Z,21.40
2023-01-13T22:25:36.023Z,21.20
2023-01-13T22:28:06.117Z,22.30
2023-01-13T22:30:33.413Z,21.20
2023-01-13T22:35:27.174Z,24.10
2023-01-13T22:37:53.894Z,23.90
2023-01-13T22:40:20.584Z,21.40
2023-01-13T22:42:47.274Z,21.10
2023-01-13T22:45:14.148Z,20.40
2023-01-13T22:47:40.940Z,20.60
2023-01-13T22:50:08.643Z,19.50
2023-01-13T22:52:35.427Z,21.00
2023-01-13T22:55:02.160Z,21.40
2023-01-13T22:57:42.579Z,21.00
2023-01-13T23:00:14.996Z,22.00
2023-01-13T23:02:42.002Z,21.00
2023-01-13T23:05:09.172Z,19.90
2023-01-13T23:07:36.308Z,21.00
2023-01-13T23:10:04.293Z,19.60
2023-01-13T23:12:31.034Z,22.30
2023-01-13T23:14:57.758Z,19.90
2023-01-13T23:17:24.475Z,20.60
2023-01-13T23:19:51.262Z,18.70
2023-01-13T23:22:18.019Z,21.10
2023-01-13T23:24:45.658Z,20.90
2023-01-13T23:29:39.176Z,19.80
2023-01-13T23:32:06.079Z,20.10
2023-01-13T23:34:32.942Z,18.90
2023-01-13T23:36:59.631Z,18.90
2023-01-13T23:39:26.471Z,19.50
2023-01-13T23:41:53.439Z,18.80
2023-01-13T23:44:20.169Z,19.90
2023-01-13T23:46:46.950Z,19.30
2023-01-13T23:49:13.668Z,19.80
2023-01-13T23:51:40.684Z,19.50
2023-01-13T23:54:07.392Z,21.20
2023-01-13T23:56:39.212Z,20.00
2023-01-13T23:59:06.565Z,21.50
